createdAt,value
2023-05-10T05:01:09.868Z,25.00
2023-05-10T05:02:09.948Z,25.00
2023-05-10T05:03:10.006Z,25.00
2023-05-10T05:04:09.922Z,25.00
2023-05-10T05:05:09.954Z,25.00
2023-05-10T05:06:10.014Z,25.00
2023-05-10T05:07:10.030Z,0.00
2023-05-10T05:08:10.036Z,0.00
2023-05-10T05:09:10.145Z,0.00
2023-05-10T05:10:10.132Z,0.00
2023-05-10T05:11:10.174Z,0.00
2023-05-10T05:12:10.239Z,0.00
2023-05-10T05:13:10.317Z,0.00
2023-05-10T05:14:10.211Z,0.00
2023-05-10T05:15:17.863Z,0.00
2023-05-10T05:16:10.421Z,0.00
2023-05-10T05:17:10.281Z,0.00
2023-05-10T05:18:10.352Z,0.00
2023-05-10T05:19:10.217Z,0.00
2023-05-10T05:20:10.244Z,0.00
2023-05-10T05:21:10.226Z,0.00
2023-05-10T05:22:10.195Z,0.00
2023-05-10T05:23:10.176Z,0.00
2023-05-10T05:24:10.219Z,0.00
2023-05-10T05:25:10.189Z,0.00
2023-05-10T05:26:10.173Z,0.00
2023-05-10T05:27:10.160Z,0.00
2023-05-10T05:28:10.168Z,0.00
2023-05-10T05:29:10.145Z,0.00
2023-05-10T05:30:10.158Z,0.00
2023-05-10T05:31:10.287Z,0.00
2023-05-10T05:32:10.191Z,17.89
2023-05-10T05:33:10.241Z,25.00
2023-05-10T05:34:10.118Z,27.67
2023-05-10T05:35:10.111Z,37.65
2023-05-10T05:36:10.102Z,29.09
2023-05-10T05:37:10.083Z,35.64
2023-05-10T05:38:10.091Z,30.18
2023-05-10T05:39:10.079Z,30.98
2023-05-10T05:40:10.053Z,32.45
2023-05-10T05:41:10.074Z,35.71
2023-05-10T05:42:10.032Z,28.91
2023-05-10T05:43:10.038Z,31.13
2023-05-10T05:44:10.043Z,26.96
2023-05-10T05:45:10.068Z,33.57
2023-05-10T05:46:10.080Z,30.71
2023-05-10T05:47:10.045Z,28.61
2023-05-10T05:48:10.026Z,43.37
2023-05-10T05:49:10.017Z,42.31
2023-05-10T05:50:10.034Z,25.00
2023-05-10T05:51:10.071Z,26.75
2023-05-10T05:52:10.011Z,37.23
2023-05-10T05:53:09.977Z,43.11
2023-05-10T05:54:09.966Z,36.52
2023-05-10T05:55:09.986Z,32.57
2023-05-10T05:56:09.939Z,35.22
2023-05-10T05:57:09.938Z,39.51
2023-05-10T05:58:09.952Z,43.74
2023-05-10T05:59:09.926Z,30.12
2023-05-10T06:00:09.940Z,28.83
2023-05-10T06:01:09.914Z,28.59
2023-05-10T06:02:09.966Z,37.71
2023-05-10T06:03:09.963Z,37.05
2023-05-10T06:04:09.927Z,33.32
2023-05-10T06:05:09.907Z,39.29
2023-05-10T06:06:09.865Z,35.97
2023-05-10T06:07:09.878Z,42.79
2023-05-10T06:08:09.904Z,33.61
2023-05-10T06:09:09.901Z,32.09
2023-05-10T06:10:09.926Z,38.34
2023-05-10T06:11:09.959Z,36.80
2023-05-10T06:12:10.012Z,40.12
2023-05-10T06:13:10.072Z,39.96
2023-05-10T06:14:10.103Z,42.74
2023-05-10T06:15:10.106Z,43.32
2023-05-10T06:16:10.174Z,37.83
2023-05-10T06:17:10.234Z,37.05
2023-05-10T06:18:10.293Z,35.97
2023-05-10T06:19:10.334Z,42.13
2023-05-10T06:20:10.417Z,43.35
2023-05-10T06:21:10.525Z,43.38
2023-05-10T06:22:10.496Z,47.07
2023-05-10T06:23:10.567Z,45.16
2023-05-10T06:24:10.638Z,48.76
2023-05-10T06:25:10.718Z,49.50
2023-05-10T06:26:10.759Z,47.15
2023-05-10T06:27:10.829Z,47.26
2023-05-10T06:28:10.880Z,47.40
2023-05-10T06:29:11.026Z,47.40
2023-05-10T06:30:13.269Z,48.07
2023-05-10T06:31:11.306Z,50.86
2023-05-10T06:32:11.316Z,51.28
2023-05-10T06:33:11.341Z,49.92
2023-05-10T06:34:11.417Z,53.52
2023-05-10T06:35:11.487Z,55.59
2023-05-10T06:36:11.535Z,57.14
2023-05-10T06:37:11.558Z,55.89
2023-05-10T06:38:11.630Z,60.21
2023-05-10T06:39:11.656Z,58.63
2023-05-10T06:40:11.743Z,65.42
2023-05-10T06:41:11.775Z,64.99
2023-05-10T06:42:11.815Z,68.76
2023-05-10T06:43:11.854Z,66.33
2023-05-10T06:44:11.916Z,64.74
2023-05-10T06:45:11.965Z,65.44
2023-05-10T06:46:12.090Z,66.48
2023-05-10T06:47:12.085Z,68.18
2023-05-10T06:48:12.216Z,66.97
2023-05-10T06:49:12.182Z,77.76
2023-05-10T06:50:12.252Z,71.13
2023-05-10T06:51:12.291Z,68.27
2023-05-10T06:52:12.326Z,65.14
2023-05-10T06:53:12.360Z,70.74
2023-05-10T06:54:12.399Z,70.83
2023-05-10T06:55:12.463Z,79.08
2023-05-10T06:56:12.503Z,73.72
2023-05-10T06:57:23.343Z,81.40
2023-05-10T06:58:13.553Z,81.66
2023-05-10T06:59:12.538Z,81.69
2023-05-10T07:00:12.559Z,77.97
2023-05-10T07:01:12.575Z,82.57
2023-05-10T07:02:12.554Z,85.32
2023-05-10T07:03:12.541Z,79.88
2023-05-10T07:04:12.519Z,76.82
2023-05-10T07:05:12.484Z,78.79
2023-05-10T07:06:21.737Z,81.16
2023-05-10T07:07:13.482Z,81.43
2023-05-10T07:08:12.474Z,81.53
2023-05-10T07:09:12.508Z,81.70
2023-05-10T07:10:12.502Z,75.69
2023-05-10T07:11:12.502Z,72.63
2023-05-10T07:12:14.685Z,70.03
2023-05-10T07:13:12.480Z,63.47
2023-05-10T07:14:12.413Z,60.34
2023-05-10T07:15:12.452Z,56.42
2023-05-10T07:16:12.431Z,55.85
2023-05-10T07:17:12.447Z,54.47
2023-05-10T07:18:12.457Z,47.76
2023-05-10T07:19:12.383Z,46.06
2023-05-10T07:20:12.358Z,51.47
2023-05-10T07:21:12.422Z,52.20
2023-05-10T07:22:12.382Z,46.27
2023-05-10T07:23:12.426Z,50.03
2023-05-10T07:24:12.353Z,49.29
2023-05-10T07:25:12.374Z,42.44
2023-05-10T07:26:12.359Z,41.18
2023-05-10T07:27:12.375Z,43.73
2023-05-10T07:28:12.374Z,37.05
2023-05-10T07:29:12.344Z,34.75
2023-05-10T07:30:12.311Z,32.68
2023-05-10T07:31:12.328Z,29.99
2023-05-10T07:32:12.347Z,29.79
2023-05-10T07:33:12.338Z,28.35
2023-05-10T07:34:12.330Z,34.35
2023-05-10T07:35:12.276Z,35.48
2023-05-10T07:36:12.280Z,37.77
2023-05-10T07:37:12.237Z,41.22
2023-05-10T07:38:12.254Z,42.06
2023-05-10T07:39:16.288Z,28.69
2023-05-10T07:40:13.803Z,29.28
2023-05-10T07:41:12.209Z,29.52
2023-05-10T07:42:12.216Z,33.16
2023-05-10T07:43:12.210Z,35.88
2023-05-10T07:44:12.199Z,45.92
2023-05-10T07:45:12.216Z,42.79
2023-05-10T07:46:12.262Z,40.69
2023-05-10T07:47:12.225Z,44.95
2023-05-10T07:48:12.195Z,45.81
2023-05-10T07:49:12.160Z,44.33
2023-05-10T07:50:12.180Z,57.81
2023-05-10T07:51:12.185Z,64.77
2023-05-10T07:52:12.140Z,63.55
2023-05-10T07:53:12.155Z,56.75
2023-05-10T07:54:12.208Z,50.88
2023-05-10T07:55:12.250Z,51.13
2023-05-10T07:56:12.269Z,52.77
2023-05-10T07:57:12.298Z,53.50
2023-05-10T07:58:12.341Z,49.89
2023-05-10T07:59:12.904Z,50.96
2023-05-10T08:00:12.419Z,50.70
2023-05-10T08:01:12.442Z,51.40
2023-05-10T08:02:12.507Z,54.50
2023-05-10T08:03:12.630Z,62.28
2023-05-10T08:04:12.643Z,56.12
2023-05-10T08:05:12.641Z,59.73
2023-05-10T08:06:12.599Z,64.57
2023-05-10T08:07:12.692Z,67.06
2023-05-10T08:08:12.667Z,71.64
2023-05-10T08:09:12.684Z,70.30
2023-05-10T08:10:12.703Z,80.67
2023-05-10T08:11:12.758Z,84.78
2023-05-10T08:12:12.768Z,80.84
2023-05-10T08:13:12.799Z,77.92
2023-05-10T08:14:12.811Z,78.28
2023-05-10T08:15:12.841Z,74.81
2023-05-10T08:16:12.905Z,81.59
2023-05-10T08:17:12.962Z,75.67
2023-05-10T08:18:13.037Z,76.32
2023-05-10T08:19:13.020Z,73.48
2023-05-10T08:20:13.008Z,70.13
2023-05-10T08:21:13.036Z,71.82
2023-05-10T08:22:13.094Z,73.63
2023-05-10T08:23:13.080Z,73.09
2023-05-10T08:24:13.091Z,69.37
2023-05-10T08:25:13.104Z,67.82
2023-05-10T08:26:13.137Z,64.80
2023-05-10T08:27:13.230Z,70.24
2023-05-10T08:28:13.208Z,76.44
2023-05-10T08:29:13.239Z,78.66
2023-05-10T08:30:13.256Z,78.93
2023-05-10T08:31:13.286Z,82.31
2023-05-10T08:32:13.317Z,84.56
2023-05-10T08:33:13.346Z,92.52
2023-05-10T08:34:13.349Z,98.93
2023-05-10T08:35:13.380Z,100.24
2023-05-10T08:36:13.365Z,103.80
2023-05-10T08:37:13.400Z,98.74
2023-05-10T08:38:13.392Z,96.91
2023-05-10T08:39:22.981Z,96.10
2023-05-10T08:40:14.398Z,96.37
2023-05-10T08:41:13.376Z,97.52
2023-05-10T08:42:13.368Z,99.08
2023-05-10T08:43:13.383Z,105.08
2023-05-10T08:44:13.426Z,111.50
2023-05-10T08:45:13.415Z,113.37
2023-05-10T08:46:13.357Z,103.18
2023-05-10T08:47:13.414Z,102.48
2023-05-10T08:48:13.322Z,92.41
2023-05-10T08:49:13.320Z,79.86
2023-05-10T08:50:13.322Z,55.49
2023-05-10T08:51:13.306Z,43.08
2023-05-10T08:52:13.330Z,25.00
2023-05-10T08:53:13.289Z,25.41
2023-05-10T08:54:13.331Z,25.32
2023-05-10T08:55:13.331Z,37.45
2023-05-10T08:56:13.299Z,39.68
2023-05-10T08:57:13.309Z,34.06
2023-05-10T08:58:13.263Z,25.27
2023-05-10T08:59:13.260Z,41.37
2023-05-10T09:00:13.246Z,41.41
2023-05-10T09:01:13.297Z,16.99
2023-05-10T09:02:13.357Z,25.00
2023-05-10T09:03:13.416Z,25.98
2023-05-10T09:04:13.563Z,25.00
2023-05-10T09:05:13.504Z,27.00
2023-05-10T09:06:13.519Z,26.56
2023-05-10T09:07:13.553Z,47.05
2023-05-10T09:08:13.532Z,67.45
2023-05-10T09:09:13.555Z,69.12
2023-05-10T09:10:13.610Z,85.58
2023-05-10T09:11:13.669Z,88.96
2023-05-10T09:12:13.698Z,71.50
2023-05-10T09:13:13.797Z,52.36
2023-05-10T09:14:13.804Z,59.39
2023-05-10T09:15:13.798Z,76.68
2023-05-10T09:16:21.620Z,74.36
2023-05-10T09:17:14.976Z,74.37
2023-05-10T09:18:13.955Z,42.17
2023-05-10T09:19:13.888Z,29.88
2023-05-10T09:20:13.791Z,44.80
2023-05-10T09:21:13.827Z,66.88
2023-05-10T09:22:13.778Z,65.96
2023-05-10T09:23:13.757Z,53.03
2023-05-10T09:24:13.774Z,39.15
2023-05-10T09:25:13.754Z,35.13
2023-05-10T09:26:13.762Z,26.35
2023-05-10T09:27:13.764Z,17.89
2023-05-10T09:28:13.759Z,20.82
2023-05-10T09:29:15.356Z,30.88
2023-05-10T09:30:13.707Z,40.48
2023-05-10T09:31:13.764Z,57.62
2023-05-10T09:32:14.014Z,84.21
2023-05-10T09:33:13.720Z,104.96
2023-05-10T09:34:13.701Z,113.35
2023-05-10T09:35:13.706Z,121.11
2023-05-10T09:36:13.690Z,132.61
2023-05-10T09:37:13.669Z,147.85
2023-05-10T09:38:13.642Z,147.21
2023-05-10T09:39:13.672Z,155.23
2023-05-10T09:40:13.639Z,154.75
2023-05-10T09:41:13.654Z,177.86
2023-05-10T09:42:13.636Z,173.88
2023-05-10T09:43:13.631Z,179.02
2023-05-10T09:44:13.584Z,187.03
2023-05-10T09:45:13.642Z,198.06
2023-05-10T09:46:13.681Z,197.01
2023-05-10T09:47:13.601Z,193.59
2023-05-10T09:48:13.634Z,204.14
2023-05-10T09:49:13.585Z,209.44
2023-05-10T09:50:13.580Z,216.14
2023-05-10T09:51:13.570Z,215.55
2023-05-10T09:52:13.568Z,217.30
2023-05-10T09:53:13.536Z,220.99
2023-05-10T09:54:13.542Z,226.45
2023-05-10T09:55:13.552Z,230.71
2023-05-10T09:56:13.533Z,226.69
2023-05-10T09:57:13.519Z,234.00
2023-05-10T09:58:13.526Z,240.49
2023-05-10T09:59:13.525Z,246.56
2023-05-10T10:00:13.521Z,244.03
2023-05-10T10:01:13.519Z,249.07
2023-05-10T10:02:13.482Z,237.02
2023-05-10T10:03:13.492Z,243.24
2023-05-10T10:04:13.527Z,244.98
2023-05-10T10:05:13.552Z,250.97
2023-05-10T10:06:26.423Z,250.00
2023-05-10T10:07:14.446Z,239.47
2023-05-10T10:08:13.472Z,229.76
2023-05-10T10:09:13.457Z,236.25
2023-05-10T10:10:13.470Z,249.52
2023-05-10T10:11:13.456Z,253.54
2023-05-10T10:12:13.396Z,250.00
2023-05-10T10:13:13.441Z,248.93
2023-05-10T10:14:13.395Z,249.67
2023-05-10T10:15:15.909Z,249.86
2023-05-10T10:16:13.439Z,247.32
2023-05-10T10:17:13.399Z,248.86
2023-05-10T10:18:13.358Z,248.56
2023-05-10T10:19:13.381Z,249.75
2023-05-10T10:20:13.366Z,249.08
2023-05-10T10:21:13.365Z,249.37
2023-05-10T10:22:13.381Z,248.75
2023-05-10T10:23:14.548Z,248.89
2023-05-10T10:24:13.334Z,249.12
2023-05-10T10:25:13.327Z,249.73
2023-05-10T10:26:13.308Z,249.74
2023-05-10T10:27:13.325Z,251.99
2023-05-10T10:28:13.290Z,254.85
2023-05-10T10:29:13.313Z,245.34
2023-05-10T10:30:13.300Z,245.07
2023-05-10T10:31:13.357Z,238.09
2023-05-10T10:32:13.275Z,230.37
2023-05-10T10:33:24.320Z,229.91
2023-05-10T10:34:14.280Z,230.24
2023-05-10T10:35:13.236Z,230.61
2023-05-10T10:36:13.245Z,233.07
2023-05-10T10:37:13.282Z,235.01
2023-05-10T10:38:13.254Z,237.43
2023-05-10T10:39:13.249Z,234.59
2023-05-10T10:40:13.211Z,230.26
2023-05-10T10:41:13.224Z,228.30
2023-05-10T10:42:13.209Z,224.61
2023-05-10T10:43:13.206Z,224.60
2023-05-10T10:44:13.188Z,218.77
2023-05-10T10:45:13.198Z,215.86
2023-05-10T10:46:13.243Z,214.21
2023-05-10T10:47:13.330Z,211.33
2023-05-10T10:48:13.156Z,208.55
2023-05-10T10:49:13.156Z,214.79
2023-05-10T10:50:13.144Z,220.32
2023-05-10T10:51:13.167Z,223.08
2023-05-10T10:52:13.135Z,216.09
2023-05-10T10:53:13.268Z,199.69
2023-05-10T10:54:13.171Z,198.07
2023-05-10T10:55:13.139Z,179.66
2023-05-10T10:56:13.097Z,188.35
2023-05-10T10:57:13.097Z,190.25
2023-05-10T10:58:13.094Z,187.77
2023-05-10T10:59:13.120Z,191.81
2023-05-10T11:00:13.131Z,193.07
2023-05-10T11:01:13.193Z,194.11
2023-05-10T11:02:13.224Z,202.08
2023-05-10T11:03:13.302Z,214.45
2023-05-10T11:04:13.334Z,219.14
2023-05-10T11:05:13.296Z,223.91
2023-05-10T11:06:13.316Z,232.05
2023-05-10T11:07:13.349Z,241.09
2023-05-10T11:08:13.376Z,244.36
2023-05-10T11:09:13.443Z,246.37
2023-05-10T11:10:13.443Z,247.05
2023-05-10T11:11:13.460Z,249.47
2023-05-10T11:12:13.503Z,246.30
2023-05-10T11:13:13.471Z,250.00
2023-05-10T11:14:13.516Z,249.91
2023-05-10T11:15:13.507Z,250.00
2023-05-10T11:16:13.568Z,250.00
2023-05-10T11:17:13.679Z,249.27
2023-05-10T11:18:13.534Z,249.02
2023-05-10T11:19:13.587Z,249.43
2023-05-10T11:20:13.666Z,249.10
2023-05-10T11:21:13.621Z,247.91
2023-05-10T11:22:13.561Z,248.41
2023-05-10T11:23:13.609Z,247.53
2023-05-10T11:24:13.581Z,244.73
2023-05-10T11:25:13.616Z,241.94
2023-05-10T11:26:13.665Z,244.72
2023-05-10T11:27:13.654Z,244.64
2023-05-10T11:28:13.653Z,243.51
2023-05-10T11:29:13.670Z,233.67
2023-05-10T11:30:13.924Z,229.89
2023-05-10T11:31:13.751Z,232.17
2023-05-10T11:32:13.694Z,230.56
2023-05-10T11:33:13.751Z,233.22
2023-05-10T11:34:13.814Z,233.16
2023-05-10T11:35:13.754Z,234.65
2023-05-10T11:36:13.778Z,237.87
2023-05-10T11:37:13.805Z,239.56
2023-05-10T11:38:13.846Z,241.49
2023-05-10T11:39:13.826Z,244.77
2023-05-10T11:40:13.876Z,247.21
2023-05-10T11:41:13.837Z,249.12
2023-05-10T11:42:13.810Z,245.71
2023-05-10T11:43:13.784Z,250.00
2023-05-10T11:44:13.828Z,248.47
2023-05-10T11:45:13.805Z,248.69
2023-05-10T11:46:13.840Z,249.69
2023-05-10T11:47:13.861Z,248.96
2023-05-10T11:48:13.910Z,250.00
2023-05-10T11:49:13.875Z,249.32
2023-05-10T11:50:14.037Z,247.90
2023-05-10T11:51:13.958Z,248.70
2023-05-10T11:52:14.010Z,249.89
2023-05-10T11:53:14.105Z,250.00
2023-05-10T11:54:14.163Z,249.99
2023-05-10T11:55:14.163Z,247.29
2023-05-10T11:56:14.237Z,249.47
2023-05-10T11:57:14.334Z,249.25
2023-05-10T11:58:14.366Z,249.15
2023-05-10T11:59:14.435Z,249.56
2023-05-10T12:00:14.668Z,247.30
2023-05-10T12:01:14.525Z,249.20
2023-05-10T12:02:14.664Z,248.73
2023-05-10T12:03:14.763Z,250.00
2023-05-10T12:04:14.937Z,247.59
2023-05-10T12:05:14.743Z,248.61
2023-05-10T12:06:14.800Z,248.35
2023-05-10T12:07:14.829Z,248.01
2023-05-10T12:08:14.908Z,248.14
2023-05-10T12:09:14.970Z,249.14
2023-05-10T12:10:15.165Z,247.62
2023-05-10T12:11:15.084Z,247.69
2023-05-10T12:12:15.104Z,244.85
2023-05-10T12:13:15.212Z,241.14
2023-05-10T12:14:15.249Z,237.21
2023-05-10T12:15:15.279Z,231.35
2023-05-10T12:16:15.441Z,233.44
2023-05-10T12:17:15.385Z,233.10
2023-05-10T12:18:15.450Z,229.88
2023-05-10T12:19:15.525Z,230.28
2023-05-10T12:20:15.780Z,223.85
2023-05-10T12:21:15.619Z,206.48
2023-05-10T12:22:15.624Z,190.39
2023-05-10T12:23:15.658Z,149.40
2023-05-10T12:24:15.749Z,137.99
2023-05-10T12:25:15.708Z,125.03
2023-05-10T12:26:15.789Z,114.34
2023-05-10T12:27:15.734Z,104.08
2023-05-10T12:28:15.866Z,111.44
2023-05-10T12:29:15.820Z,119.02
2023-05-10T12:30:15.932Z,131.26
2023-05-10T12:31:15.905Z,131.23
2023-05-10T12:32:15.948Z,130.32
2023-05-10T12:33:15.988Z,118.07
2023-05-10T12:34:15.870Z,117.14
2023-05-10T12:35:15.904Z,116.64
2023-05-10T12:36:15.932Z,108.34
2023-05-10T12:37:15.983Z,98.74
2023-05-10T12:38:16.008Z,111.48
2023-05-10T12:39:16.073Z,121.99
2023-05-10T12:40:16.329Z,127.38
2023-05-10T12:41:16.162Z,95.81
2023-05-10T12:42:16.138Z,101.20
2023-05-10T12:43:16.190Z,111.70
2023-05-10T12:44:16.270Z,103.09
2023-05-10T12:45:16.255Z,109.91
2023-05-10T12:46:16.452Z,103.75
2023-05-10T12:47:16.370Z,97.36
2023-05-10T12:48:16.427Z,97.55
2023-05-10T12:49:16.492Z,89.02
2023-05-10T12:50:16.727Z,102.76
2023-05-10T12:51:16.563Z,110.17
2023-05-10T12:52:16.484Z,103.09
2023-05-10T12:53:16.513Z,106.50
2023-05-10T12:54:16.512Z,102.34
2023-05-10T12:55:16.567Z,105.87
2023-05-10T12:56:16.562Z,114.70
2023-05-10T12:57:16.584Z,117.74
2023-05-10T12:58:31.383Z,115.30
2023-05-10T12:59:17.574Z,115.33
2023-05-10T13:00:16.694Z,111.07
2023-05-10T13:01:16.573Z,108.05
2023-05-10T13:02:16.562Z,106.81
2023-05-10T13:03:16.527Z,114.97
2023-05-10T13:04:16.669Z,124.40
2023-05-10T13:05:16.536Z,143.53
2023-05-10T13:06:16.537Z,142.74
2023-05-10T13:07:16.509Z,150.79
2023-05-10T13:08:16.489Z,149.84
2023-05-10T13:09:16.494Z,152.27
2023-05-10T13:10:16.586Z,149.76
2023-05-10T13:11:16.508Z,153.11
2023-05-10T13:12:16.474Z,157.65
2023-05-10T13:13:16.486Z,156.82
2023-05-10T13:14:16.599Z,184.78
2023-05-10T13:15:16.537Z,189.52
2023-05-10T13:16:16.611Z,168.53
2023-05-10T13:17:16.678Z,170.99
2023-05-10T13:18:16.708Z,167.85
2023-05-10T13:19:16.747Z,174.23
2023-05-10T13:20:17.091Z,179.20
2023-05-10T13:21:16.691Z,187.65
2023-05-10T13:22:22.855Z,184.61
2023-05-10T13:23:17.670Z,184.75
2023-05-10T13:24:16.691Z,184.12
2023-05-10T13:25:16.659Z,183.18
2023-05-10T13:26:16.660Z,179.18
2023-05-10T13:27:16.655Z,182.56
2023-05-10T13:28:16.620Z,178.68
2023-05-10T13:29:16.641Z,175.53
2023-05-10T13:30:16.792Z,169.75
2023-05-10T13:31:16.695Z,162.00
2023-05-10T13:32:16.602Z,164.51
2023-05-10T13:33:16.575Z,164.98
2023-05-10T13:34:16.691Z,164.54
2023-05-10T13:35:16.590Z,158.31
2023-05-10T13:36:16.609Z,159.77
2023-05-10T13:37:16.595Z,157.27
2023-05-10T13:38:16.604Z,152.69
2023-05-10T13:39:16.600Z,148.57
2023-05-10T13:40:16.866Z,152.73
2023-05-10T13:41:16.625Z,150.25
2023-05-10T13:42:16.587Z,149.17
2023-05-10T13:43:16.624Z,148.37
2023-05-10T13:44:16.646Z,149.01
2023-05-10T13:45:16.745Z,146.93
2023-05-10T13:46:16.716Z,149.54
2023-05-10T13:47:16.632Z,146.69
2023-05-10T13:48:16.643Z,144.68
2023-05-10T13:49:16.639Z,142.74
2023-05-10T13:50:16.611Z,142.52
2023-05-10T13:51:16.615Z,141.26
2023-05-10T13:52:16.645Z,141.47
2023-05-10T13:53:16.605Z,140.27
2023-05-10T13:54:16.615Z,144.55
2023-05-10T13:55:16.742Z,139.97
2023-05-10T13:56:16.626Z,137.22
2023-05-10T13:57:16.587Z,139.93
2023-05-10T13:58:16.628Z,145.49
2023-05-10T13:59:16.578Z,144.28
2023-05-10T14:00:16.593Z,148.01
2023-05-10T14:01:16.618Z,143.71
2023-05-10T14:02:16.601Z,147.16
2023-05-10T14:03:16.615Z,148.23
2023-05-10T14:04:16.627Z,152.15
2023-05-10T14:05:17.182Z,152.83
2023-05-10T14:06:16.663Z,149.47
2023-05-10T14:07:16.672Z,153.06
2023-05-10T14:08:16.683Z,153.08
2023-05-10T14:09:16.852Z,158.62
2023-05-10T14:10:16.782Z,155.94
2023-05-10T14:11:16.807Z,157.98
2023-05-10T14:12:16.856Z,159.33
2023-05-10T14:13:16.913Z,160.79
2023-05-10T14:14:16.979Z,163.03
2023-05-10T14:15:17.555Z,164.33
2023-05-10T14:16:17.118Z,161.31
2023-05-10T14:17:17.183Z,162.47
2023-05-10T14:18:17.264Z,164.18
2023-05-10T14:19:17.261Z,166.97
2023-05-10T14:20:17.342Z,172.13
2023-05-10T14:21:17.383Z,169.43
2023-05-10T14:22:17.430Z,170.48
2023-05-10T14:23:17.502Z,170.25
2023-05-10T14:24:17.590Z,173.97
2023-05-10T14:25:17.810Z,173.47
2023-05-10T14:26:17.680Z,174.58
2023-05-10T14:27:17.730Z,178.26
2023-05-10T14:28:17.865Z,178.54
2023-05-10T14:29:18.808Z,178.71
2023-05-10T14:30:17.910Z,179.94
2023-05-10T14:31:18.097Z,181.58
2023-05-10T14:32:18.150Z,183.46
2023-05-10T14:33:18.062Z,183.89
2023-05-10T14:34:18.132Z,182.73
2023-05-10T14:35:19.626Z,184.42
2023-05-10T14:36:18.219Z,183.47
2023-05-10T14:37:18.290Z,185.23
2023-05-10T14:38:18.337Z,184.36
2023-05-10T14:39:18.386Z,183.95
2023-05-10T14:40:18.436Z,183.91
2023-05-10T14:41:18.497Z,179.03
2023-05-10T14:42:18.582Z,183.28
2023-05-10T14:43:18.625Z,180.31
2023-05-10T14:44:18.634Z,179.02
2023-05-10T14:45:18.823Z,181.50
2023-05-10T14:46:18.760Z,179.25
2023-05-10T14:47:18.772Z,184.98
2023-05-10T14:48:18.794Z,189.79
2023-05-10T14:49:18.938Z,180.88
2023-05-10T14:50:32.344Z,181.90
2023-05-10T14:51:19.923Z,182.29
2023-05-10T14:53:37.951Z,25.00
2023-05-10T14:54:37.956Z,25.00
2023-05-10T14:55:37.964Z,25.00
2023-05-10T14:56:37.926Z,25.00
2023-05-10T14:57:37.932Z,25.00
2023-05-10T14:58:37.908Z,25.17
2023-05-10T14:59:37.941Z,25.00
2023-05-10T15:00:37.930Z,38.41
2023-05-10T15:01:37.979Z,30.37
2023-05-10T15:02:38.016Z,35.39
2023-05-10T15:03:38.163Z,26.32
2023-05-10T15:04:37.963Z,30.85
2023-05-10T15:05:37.877Z,29.22
2023-05-10T15:06:37.926Z,38.77
2023-05-10T15:07:37.862Z,33.82
2023-05-10T15:08:37.830Z,35.65
2023-05-10T15:09:37.852Z,30.38
2023-05-10T15:10:37.821Z,31.46
2023-05-10T15:11:37.832Z,32.40
2023-05-10T15:12:37.843Z,29.44
2023-05-10T15:13:37.854Z,30.35
2023-05-10T15:14:37.786Z,30.97
2023-05-10T15:15:37.805Z,33.54
2023-05-10T15:16:37.896Z,32.82
2023-05-10T15:17:37.889Z,33.48
2023-05-10T15:18:37.815Z,32.01
2023-05-10T15:19:37.771Z,34.41
2023-05-10T15:20:37.785Z,47.73
2023-05-10T15:21:37.760Z,0.00
2023-05-10T15:22:37.746Z,0.00
2023-05-10T15:23:37.750Z,0.00
2023-05-10T15:24:37.731Z,0.00
2023-05-10T15:25:37.732Z,0.00
2023-05-10T15:26:37.775Z,0.00
2023-05-10T15:27:37.806Z,54.65
2023-05-10T15:28:37.863Z,91.51
2023-05-10T15:29:37.936Z,111.13
2023-05-10T15:30:37.982Z,107.62
2023-05-10T15:31:38.037Z,105.51
2023-05-10T15:32:38.106Z,120.67
2023-05-10T15:33:40.775Z,119.67
2023-05-10T15:34:38.073Z,147.82
2023-05-10T15:35:38.069Z,172.41
2023-05-10T15:36:38.084Z,177.61
2023-05-10T15:37:38.134Z,182.46
2023-05-10T15:38:38.087Z,209.42
2023-05-10T15:39:38.040Z,218.62
2023-05-10T15:40:38.013Z,226.60
2023-05-10T15:41:38.033Z,243.45
2023-05-10T15:42:38.031Z,231.57
2023-05-10T15:43:38.019Z,233.07
2023-05-10T15:44:38.003Z,251.29
2023-05-10T15:45:37.998Z,247.92
2023-05-10T15:46:38.076Z,257.51
2023-05-10T15:47:38.010Z,240.79
2023-05-10T15:48:37.998Z,244.53
2023-05-10T15:49:38.019Z,239.66
2023-05-10T15:50:37.964Z,241.38
2023-05-10T15:51:37.973Z,240.93
2023-05-10T15:52:37.926Z,244.65
2023-05-10T15:53:37.995Z,244.42
2023-05-10T15:54:37.932Z,247.64
2023-05-10T15:55:37.936Z,248.15
2023-05-10T15:56:37.934Z,246.98
2023-05-10T15:57:37.894Z,248.92
2023-05-10T15:58:37.897Z,245.19
2023-05-10T15:59:37.901Z,249.39
2023-05-10T16:00:37.939Z,248.40
2023-05-10T16:01:37.883Z,246.65
2023-05-10T16:02:37.945Z,246.23
2023-05-10T16:03:37.948Z,245.61
2023-05-10T16:04:37.877Z,246.99
2023-05-10T16:05:37.865Z,246.23
2023-05-10T16:06:37.882Z,247.97
2023-05-10T16:07:37.877Z,245.88
2023-05-10T16:08:37.845Z,246.52
2023-05-10T16:09:37.844Z,247.06
2023-05-10T16:10:37.815Z,246.49
2023-05-10T16:11:37.854Z,243.42
2023-05-10T16:12:37.817Z,244.52
2023-05-10T16:13:37.817Z,245.68
2023-05-10T16:14:37.792Z,243.46
2023-05-10T16:15:37.784Z,242.62
2023-05-10T16:16:37.892Z,243.51
2023-05-10T16:17:37.902Z,241.66
2023-05-10T16:18:37.869Z,242.31
2023-05-10T16:19:37.761Z,243.06
2023-05-10T16:20:37.733Z,244.71
2023-05-10T16:21:37.726Z,244.51
2023-05-10T16:22:37.729Z,242.21
2023-05-10T16:23:37.777Z,243.43
2023-05-10T16:24:37.739Z,240.24
2023-05-10T16:25:37.718Z,245.79
2023-05-10T16:26:37.707Z,242.17
2023-05-10T16:27:37.723Z,240.84
2023-05-10T16:28:37.682Z,247.37
2023-05-10T16:29:37.691Z,245.61
2023-05-10T16:30:37.738Z,242.80
2023-05-10T16:31:37.692Z,242.33
2023-05-10T16:32:37.705Z,242.93
2023-05-10T16:33:37.644Z,241.30
2023-05-10T16:34:37.681Z,242.50
2023-05-10T16:35:37.659Z,240.28
2023-05-10T16:36:37.645Z,241.78
2023-05-10T16:37:37.633Z,245.32
2023-05-10T16:38:37.622Z,241.66
2023-05-10T16:39:37.615Z,241.11
2023-05-10T16:40:37.633Z,240.92
2023-05-10T16:41:37.622Z,240.53
2023-05-10T16:42:37.584Z,240.48
2023-05-10T16:43:37.570Z,241.00
2023-05-10T16:44:37.579Z,242.62
2023-05-10T16:45:37.557Z,239.48
2023-05-10T16:46:37.766Z,244.72
2023-05-10T16:47:37.575Z,242.83
2023-05-10T16:48:37.538Z,247.14
2023-05-10T16:49:37.579Z,242.06
2023-05-10T16:50:37.531Z,240.30
2023-05-10T16:51:37.522Z,240.66
2023-05-10T16:52:37.516Z,241.65
2023-05-10T16:53:37.493Z,242.00
2023-05-10T16:54:37.473Z,240.92
2023-05-10T16:55:37.489Z,238.87
2023-05-10T16:56:37.503Z,240.33
2023-05-10T16:57:37.483Z,241.63
2023-05-10T16:58:37.501Z,240.82
2023-05-10T16:59:37.457Z,239.13
2023-05-10T17:00:37.454Z,238.91
